Flight Track Log - Related Links

Times and Time Zones

All times are in EST time to prevent confusion due to time zone crossing. See the FLG3588 flight status page for this flight to view local times or setup timezone preferences in your user account.

Time Position Orientation Groundspeed Altitude Reporting Facility
EST Latitude Longitude Course Direction KTS MPH feet Rate Location/Type
Tue 03:20:42 PM 33.6500 -84.4500 292° West 139 160 2,300  Level Atlanta TRACON
Tue 03:21:42 PM 33.6667 -84.5000 292° West 214 246 4,000 2,400 Climbing Atlanta TRACON
Tue 03:22:42 PM 33.7000 -84.5667 301° West 245 282 7,100 2,550 Climbing Atlanta TRACON
Tue 03:23:42 PM 33.7667 -84.5833 348° North 275 316 9,100 2,050 Climbing Atlanta TRACON
Tue 03:24:42 PM 33.8500 -84.5833 360° North 273 314 11,200 1,628 Climbing Atlanta TRACON
Tue 03:25:51 PM 33.9369 -84.5847 359° North 333 383 12,600 1,488 Climbing Atlanta Center
Tue 03:26:51 PM 34.0414 -84.5878 359° North 340 391 14,400 1,850 Climbing Atlanta Center
Tue 03:27:51 PM 34.1375 -84.5883 360° North 340 391 16,300 1,800 Climbing Atlanta Center
Tue 03:28:51 PM 34.2397 -84.5942 357° North 353 406 18,000 1,200 Climbing Atlanta Center
Tue 03:29:51 PM 34.3397 -84.6072 354° North 353 406 18,700 950 Climbing Atlanta Center
Tue 03:30:51 PM 34.4378 -84.6333 348° North 358 412 19,900 1,200 Climbing Atlanta Center
Tue 03:31:51 PM 34.5419 -84.6592 348° North 366 421 21,100 1,200 Climbing Atlanta Center
Tue 03:32:51 PM 34.6461 -84.6853 348° North 373 429 22,300 1,200 Climbing Atlanta Center
Tue 03:33:51 PM 34.7503 -84.7111 348° North 378 435 23,500 1,150 Climbing Atlanta Center
Tue 03:34:51 PM 34.8544 -84.7375 348° North 378 435 24,600 1,000 Climbing Atlanta Center
Tue 03:35:51 PM 34.9608 -84.7636 349° North 378 435 25,500 900 Climbing Atlanta Center
Tue 03:36:51 PM 35.0672 -84.7900 349° North 378 435 26,400 800 Climbing Atlanta Center
Tue 03:37:51 PM 35.1756 -84.8164 349° North 389 448 27,100 700 Climbing Atlanta Center
Tue 03:38:51 PM 35.2858 -84.8428 349° North 395 455 27,800 450 Climbing Atlanta Center
Tue 03:39:51 PM 35.3964 -84.8719 348° North 395 455 28,000 100 Climbing Atlanta Center
Tue 03:40:51 PM 35.5128 -84.9011 348° North 407 468 28,000  Level Atlanta Center
Tue 03:41:51 PM 35.6336 -84.9331 348° North 423 487 28,000  Level Atlanta Center
Tue 03:42:51 PM 35.7544 -84.9625 349° North 429 494 28,000  Level Atlanta Center
Tue 03:43:51 PM 35.8628 -84.9894 349° North 440 506 28,000  Level Atlanta Center
Tue 03:45:09 PM 36.0350 -85.0319 349° North 450 518 28,000  Level Indianapolis Center
Tue 03:46:10 PM 36.1589 -85.0639 348° North 450 518 28,000  Level Indianapolis Center
Tue 03:47:12 PM 36.2822 -85.0958 348° North 452 520 28,000  Level Indianapolis Center
Tue 03:48:13 PM 36.4047 -85.1281 348° North 449 517 28,000  Level Indianapolis Center
Tue 03:49:15 PM 36.5272 -85.1581 349° North 448 516 28,000  Level Indianapolis Center
Tue 03:50:16 PM 36.6508 -85.1906 348° North 451 519 28,000  Level Indianapolis Center
Tue 03:51:18 PM 36.7739 -85.2233 348° North 452 520 28,000  Level Indianapolis Center
Tue 03:52:19 PM 36.8950 -85.2544 348° North 445 512 28,000  Level Indianapolis Center
Tue 03:53:21 PM 37.0425 -85.2942 348° North 450 518 28,000  Level Indianapolis Center
Tue 03:54:22 PM 37.1511 -85.3214 349° North 449 517 28,000  Level Indianapolis Center
Tue 03:55:24 PM 37.2719 -85.3536 348° North 444 511 28,000  Level Indianapolis Center
Tue 03:56:25 PM 37.4139 -85.3917 348° North 444 511 28,000  Level Indianapolis Center
Tue 03:57:27 PM 37.5344 -85.4228 348° North 441 507 28,000  Level Indianapolis Center
Tue 03:58:29 PM 37.6611 -85.4211 North 452 520 28,000  Level Indianapolis Center
Tue 03:59:31 PM 37.7903 -85.4142 North 461 531 28,000  Level Indianapolis Center
Tue 04:00:32 PM 37.9117 -85.4025 North 468 539 28,000 -148 Level Indianapolis Center
Tue 04:01:33 PM 38.0394 -85.3947 North 460 529 27,700 -488 Descending Indianapolis Center
Tue 04:02:35 PM 38.1678 -85.3853 North 460 529 27,000 -341 Descending Indianapolis Center
Tue 04:03:36 PM 38.3144 -85.3756 North 444 511 27,000  Level Indianapolis Center
Tue 04:04:38 PM 38.4314 -85.3681 North 426 490 27,000  Level Indianapolis Center
Tue 04:05:39 PM 38.5539 -85.3600 North 436 502 27,000  Level Indianapolis Center
Tue 04:06:41 PM 38.6811 -85.3517 North 439 505 27,000  Level Indianapolis Center
Tue 04:07:42 PM 38.8047 -85.3439 North 445 512 27,000  Level Indianapolis Center
Tue 04:08:44 PM 38.9303 -85.3350 North 452 520 27,000  Level Indianapolis Center
Tue 04:09:45 PM 39.0539 -85.3283 North 450 518 27,000  Level Indianapolis Center
Tue 04:10:47 PM 39.1758 -85.3219 North 446 513 27,000  Level Indianapolis Center
Tue 04:11:48 PM 39.3019 -85.3097 North 450 518 27,000  Level Indianapolis Center
Tue 04:12:49 PM 39.4522 -85.3006 North 452 520 27,000  Level Indianapolis Center
Tue 04:13:51 PM 39.5767 -85.2917 North 453 521 27,000 -1,122 Level Indianapolis Center
Tue 04:14:52 PM 39.7022 -85.2842 North 455 524 24,700 -1,463 Descending Indianapolis Center
Tue 04:15:54 PM 39.8194 -85.2750 North 435 501 24,000 -726 Descending Indianapolis Center
Tue 04:16:56 PM 39.9267 -85.2678 North 399 459 23,200 -1,415 Descending Indianapolis Center
Tue 04:17:57 PM 40.0406 -85.2603 North 408 470 21,100 -1,122 Descending Indianapolis Center
Tue 04:18:59 PM 40.1742 -85.2514 North 405 466 20,900 -1,463 Descending Indianapolis Center
Tue 04:20:00 PM 40.2703 -85.2436 North 358 412 18,100 -2,488 Descending Indianapolis Center
Tue 04:21:02 PM 40.3628 -85.2383 North 337 388 15,800 -2,327 Descending Indianapolis Center
Tue 04:21:38 PM 40.4142 -85.2344 North 324 373 14,300 -2,449 Descending Chicago Center
Tue 04:22:40 PM 40.5000 -85.2264 North 315 362 11,800 -2,049 Descending Chicago Center
Tue 04:23:41 PM 40.5944 -85.2208 North 332 382 10,100 -885 Descending Chicago Center
Tue 04:24:42 PM 40.6906 -85.2128 North 333 383 10,000 -585 Descending Chicago Center
Tue 04:25:44 PM 40.7600 -85.2083 North 261 300 8,900 -1,512 Descending Chicago Center
Tue 04:26:45 PM 40.8281 -85.2036 North 248 285 6,900 -1,854 Descending Chicago Center
Tue 04:27:47 PM 40.8875 -85.1561 31° Northeast 269 310 5,100 -1,512 Descending Chicago Center
Tue 04:28:48 PM 40.9389 -85.0739 50° Northeast 256 295 3,800 -1,033 Descending Chicago Center
Tue 04:29:49 PM 40.9831 -85.0422 28° Northeast 232 267 3,000 -634 Descending Chicago Center
Tue 04:30:51 PM 41.0169 -85.0781 321° Northwest 182 209 2,500 -439 Descending Chicago Center
Tue 04:31:52 PM 41.0203 -85.1292 275° West 155 178 2,100 -341 Descending Chicago Center
Tue 04:32:54 PM 41.0056 -85.1692 244° Southwest 146 168 1,800 -290 Descending Chicago Center

Login

Don't have an account? Register now (free) for customized features, flight alerts, and more!